createdAt,value
2023-01-04T00:00:54.848Z,1019.25
2023-01-04T00:01:54.777Z,1019.25
2023-01-04T00:02:54.901Z,1019.21
2023-01-04T00:03:54.902Z,1019.18
2023-01-04T00:04:54.774Z,1019.12
2023-01-04T00:05:54.779Z,1019.08
2023-01-04T00:06:54.782Z,1019.11
2023-01-04T00:07:54.778Z,1019.07
2023-01-04T00:08:54.801Z,1019.10
2023-01-04T00:09:54.786Z,1019.03
2023-01-04T00:10:54.793Z,1019.05
2023-01-04T00:11:54.788Z,1019.00
2023-01-04T00:12:54.815Z,1019.01
2023-01-04T00:13:54.799Z,1019.04
2023-01-04T00:14:54.804Z,1019.06
2023-01-04T00:15:54.888Z,1019.01
2023-01-04T00:16:54.816Z,1019.09
2023-01-04T00:17:54.874Z,1019.04
2023-01-04T00:18:54.813Z,1019.01
2023-01-04T00:19:54.817Z,1019.01
2023-01-04T00:20:54.812Z,1019.05
2023-01-04T00:21:54.807Z,1018.97
2023-01-04T00:22:54.837Z,1018.94
2023-01-04T00:23:54.834Z,1018.92
2023-01-04T00:24:54.840Z,1018.88
2023-01-04T00:25:54.822Z,1018.93
2023-01-04T00:26:54.822Z,1018.92
2023-01-04T00:27:54.831Z,1018.88
2023-01-04T00:28:54.816Z,1018.94
2023-01-04T00:29:54.823Z,1018.94
2023-01-04T00:30:54.928Z,1018.96
2023-01-04T00:31:54.881Z,1019.00
2023-01-04T00:32:54.832Z,1018.99
2023-01-04T00:33:54.839Z,1019.01
2023-01-04T00:34:54.841Z,1018.98
2023-01-04T00:35:54.847Z,1018.95
2023-01-04T00:36:54.841Z,1018.94
2023-01-04T00:37:54.846Z,1018.92
2023-01-04T00:38:54.845Z,1018.85
2023-01-04T00:39:54.845Z,1018.77
2023-01-04T00:40:54.863Z,1018.78
2023-01-04T00:41:59.819Z,1018.77
2023-01-04T00:42:54.853Z,1018.76
2023-01-04T00:43:54.859Z,1018.76
2023-01-04T00:44:54.856Z,1018.77
2023-01-04T00:45:54.892Z,1018.75
2023-01-04T00:46:54.906Z,1018.72
2023-01-04T00:47:54.853Z,1018.70
2023-01-04T00:49:00.179Z,1018.65
2023-01-04T00:49:54.873Z,1018.58
2023-01-04T00:53:20.699Z,1018.48
2023-01-04T00:58:29.864Z,1018.31
2023-01-04T00:59:29.840Z,1018.24
2023-01-04T01:00:29.853Z,1018.25
2023-01-04T01:06:20.903Z,1018.07
2023-01-04T01:07:20.877Z,1018.02
2023-01-04T01:08:20.888Z,1017.99
2023-01-04T01:09:20.885Z,1017.99
2023-01-04T01:10:20.889Z,1017.93
2023-01-04T01:11:20.884Z,1017.91
2023-01-04T01:12:20.899Z,1017.91
2023-01-04T01:13:20.905Z,1017.85
2023-01-04T01:14:20.927Z,1017.81
2023-01-04T01:15:20.904Z,1017.86
2023-01-04T01:16:44.540Z,1017.93
2023-01-04T01:17:20.905Z,1017.87
2023-01-04T01:18:20.917Z,1017.81
2023-01-04T01:19:20.919Z,1017.83
2023-01-04T01:20:20.927Z,1017.86
2023-01-04T01:21:20.911Z,1017.84
2023-01-04T01:22:20.913Z,1017.83
2023-01-04T01:23:20.927Z,1017.85
2023-01-04T01:24:20.908Z,1017.85
2023-01-04T01:25:20.911Z,1017.83
2023-01-04T01:26:20.926Z,1017.84
2023-01-04T01:27:20.924Z,1017.81
2023-01-04T01:28:20.930Z,1017.77
2023-01-04T01:29:20.939Z,1017.84
2023-01-04T01:30:20.955Z,1017.83
2023-01-04T01:31:20.973Z,1017.80
2023-01-04T01:32:20.922Z,1017.82
2023-01-04T01:33:20.931Z,1017.86
2023-01-04T01:34:21.006Z,1017.91
2023-01-04T01:35:20.935Z,1017.86
2023-01-04T01:36:20.933Z,1017.86
2023-01-04T01:37:20.932Z,1017.86
2023-01-04T01:38:20.940Z,1017.84
2023-01-04T01:39:20.941Z,1017.85
2023-01-04T01:40:20.943Z,1017.86
2023-01-04T01:41:20.945Z,1017.86
2023-01-04T01:42:20.971Z,1017.85
2023-01-04T01:43:20.950Z,1017.84
2023-01-04T01:44:20.951Z,1017.81
2023-01-04T01:45:20.952Z,1017.82
2023-01-04T01:46:21.034Z,1017.78
2023-01-04T01:47:20.948Z,1017.73
2023-01-04T01:48:20.960Z,1017.70
2023-01-04T01:49:20.962Z,1017.67
2023-01-04T01:50:20.962Z,1017.67
2023-01-04T01:51:20.963Z,1017.68
2023-01-04T01:52:20.967Z,1017.65
2023-01-04T01:53:20.974Z,1017.64
2023-01-04T01:54:20.963Z,1017.65
2023-01-04T01:55:20.971Z,1017.64
2023-01-04T01:56:20.962Z,1017.61
2023-01-04T01:57:20.968Z,1017.58
2023-01-04T01:58:20.981Z,1017.62
2023-01-04T01:59:20.976Z,1017.60
2023-01-04T02:00:20.987Z,1017.57
2023-01-04T02:01:21.166Z,1017.58
2023-01-04T02:02:21.217Z,1017.56
2023-01-04T02:03:21.113Z,1017.56
2023-01-04T02:04:20.979Z,1017.50
2023-01-04T02:05:20.985Z,1017.45
2023-01-04T02:06:20.985Z,1017.46
2023-01-04T02:07:20.990Z,1017.42
2023-01-04T02:08:20.993Z,1017.37
2023-01-04T02:09:20.991Z,1017.35
2023-01-04T02:10:20.996Z,1017.33
2023-01-04T02:11:21.002Z,1017.32
2023-01-04T02:12:21.002Z,1017.23
2023-01-04T02:13:20.995Z,1017.24
2023-01-04T02:14:21.007Z,1017.20
2023-01-04T02:15:20.999Z,1017.15
2023-01-04T02:16:21.112Z,1017.18
2023-01-04T02:17:21.002Z,1017.15
2023-01-04T02:18:21.035Z,1017.18
2023-01-04T02:19:21.026Z,1017.17
2023-01-04T02:20:21.010Z,1017.16
2023-01-04T02:21:21.022Z,1017.09
2023-01-04T02:22:21.019Z,1017.01
2023-01-04T02:23:21.012Z,1016.99
2023-01-04T02:24:21.062Z,1016.96
2023-01-04T02:25:21.027Z,1016.99
2023-01-04T02:26:21.031Z,1016.92
2023-01-04T02:27:21.033Z,1016.85
2023-01-04T02:28:21.033Z,1016.87
2023-01-04T02:29:21.079Z,1016.85
2023-01-04T02:30:21.044Z,1016.79
2023-01-04T02:31:21.120Z,1016.77
2023-01-04T02:32:21.031Z,1016.81
2023-01-04T02:33:21.029Z,1016.79
2023-01-04T02:34:21.073Z,1016.78
2023-01-04T02:35:21.042Z,1016.77
2023-01-04T02:36:21.040Z,1016.79
2023-01-04T02:37:21.067Z,1016.75
2023-01-04T02:38:21.045Z,1016.70
2023-01-04T02:39:21.041Z,1016.68
2023-01-04T02:40:21.045Z,1016.63
2023-01-04T02:41:21.054Z,1016.61
2023-01-04T02:42:21.056Z,1016.61
2023-01-04T02:43:21.059Z,1016.62
2023-01-04T02:44:21.052Z,1016.56
2023-01-04T02:45:21.054Z,1016.51
2023-01-04T02:46:21.101Z,1016.52
2023-01-04T02:47:21.072Z,1016.49
2023-01-04T02:48:21.066Z,1016.46
2023-01-04T02:49:21.072Z,1016.41
2023-01-04T02:50:21.082Z,1016.41
2023-01-04T02:51:21.087Z,1016.42
2023-01-04T02:52:21.066Z,1016.39
2023-01-04T02:53:21.087Z,1016.32
2023-01-04T02:54:21.070Z,1016.33
2023-01-04T02:55:21.079Z,1016.25
2023-01-04T02:56:21.080Z,1016.29
2023-01-04T02:57:21.085Z,1016.23
2023-01-04T02:58:21.080Z,1016.20
2023-01-04T02:59:21.087Z,1016.22
2023-01-04T03:00:21.095Z,1016.14
2023-01-04T03:01:21.318Z,1016.13
2023-01-04T03:02:21.223Z,1016.06
2023-01-04T03:03:21.322Z,1016.11
2023-01-04T03:04:21.096Z,1016.14
2023-01-04T03:05:21.097Z,1016.11
2023-01-04T03:06:21.121Z,1016.09
2023-01-04T03:07:21.094Z,1016.06
2023-01-04T03:08:21.111Z,1016.03
2023-01-04T03:09:21.128Z,1016.04
2023-01-04T03:10:21.104Z,1015.94
2023-01-04T03:11:21.101Z,1015.93
2023-01-04T03:12:21.117Z,1015.83
2023-01-04T03:13:21.123Z,1015.87
2023-01-04T03:14:31.635Z,1015.81
2023-01-04T03:15:21.115Z,1015.87
2023-01-04T03:16:21.255Z,1015.88
2023-01-04T03:17:21.117Z,1015.88
2023-01-04T03:18:21.123Z,1015.82
2023-01-04T03:19:21.112Z,1015.78
2023-01-04T03:20:21.135Z,1015.74
2023-01-04T03:21:21.120Z,1015.72
2023-01-04T03:22:21.140Z,1015.74
2023-01-04T03:23:21.128Z,1015.67
2023-01-04T03:24:21.127Z,1015.61
2023-01-04T03:25:21.127Z,1015.60
2023-01-04T03:26:21.142Z,1015.50
2023-01-04T03:27:21.131Z,1015.52
2023-01-04T03:28:21.139Z,1015.45
2023-01-04T03:29:21.135Z,1015.39
2023-01-04T03:30:21.141Z,1015.38
2023-01-04T03:31:21.202Z,1015.44
2023-01-04T03:32:21.148Z,1015.46
2023-01-04T03:33:21.145Z,1015.44
2023-01-04T03:34:21.150Z,1015.42
2023-01-04T03:35:21.150Z,1015.44
2023-01-04T03:36:21.149Z,1015.35
2023-01-04T03:37:21.154Z,1015.31
2023-01-04T03:38:21.184Z,1015.21
2023-01-04T03:39:21.156Z,1015.19
2023-01-04T03:40:21.162Z,1015.17
2023-01-04T03:41:21.166Z,1015.23
2023-01-04T03:42:21.161Z,1015.19
2023-01-04T03:43:21.166Z,1015.17
2023-01-04T03:44:21.164Z,1015.20
2023-01-04T03:45:21.167Z,1015.19
2023-01-04T03:46:21.248Z,1015.09
2023-01-04T03:47:21.176Z,1015.14
2023-01-04T03:48:21.212Z,1015.06
2023-01-04T03:49:21.183Z,1015.01
2023-01-04T03:50:21.188Z,1015.01
2023-01-04T03:51:21.187Z,1014.95
2023-01-04T03:52:21.182Z,1015.01
2023-01-04T03:53:21.182Z,1014.98
2023-01-04T03:54:21.253Z,1014.98
2023-01-04T03:55:21.179Z,1014.92
2023-01-04T03:56:21.192Z,1014.89
2023-01-04T03:57:21.193Z,1014.89
2023-01-04T03:58:21.188Z,1014.86
2023-01-04T03:59:21.192Z,1014.76
2023-01-04T04:00:21.195Z,1014.84
2023-01-04T04:01:21.356Z,1014.79
2023-01-04T04:02:21.292Z,1014.83
2023-01-04T04:03:21.205Z,1014.75
2023-01-04T04:04:21.301Z,1014.81
2023-01-04T04:05:21.196Z,1014.87
2023-01-04T04:06:21.206Z,1014.76
2023-01-04T04:07:21.209Z,1014.71
2023-01-04T04:08:21.201Z,1014.74
2023-01-04T04:09:21.231Z,1014.69
2023-01-04T04:10:21.231Z,1014.63
2023-01-04T04:11:21.238Z,1014.63
2023-01-04T04:12:21.232Z,1014.54
2023-01-04T04:13:21.221Z,1014.56
2023-01-04T04:14:21.221Z,1014.51
2023-01-04T04:15:21.217Z,1014.58
2023-01-04T04:16:21.295Z,1014.59
2023-01-04T04:17:21.228Z,1014.56
2023-01-04T04:18:21.235Z,1014.52
2023-01-04T04:19:21.229Z,1014.54
2023-01-04T04:20:21.240Z,1014.50
2023-01-04T04:21:21.237Z,1014.52
2023-01-04T04:22:21.232Z,1014.49
2023-01-04T04:23:21.249Z,1014.53
2023-01-04T04:24:21.242Z,1014.53
2023-01-04T04:25:21.246Z,1014.58
2023-01-04T04:26:21.277Z,1014.57
2023-01-04T04:27:21.245Z,1014.55
2023-01-04T04:28:21.252Z,1014.42
2023-01-04T04:29:21.252Z,1014.45
2023-01-04T04:30:21.260Z,1014.34
2023-01-04T04:31:21.331Z,1014.37
2023-01-04T04:32:21.256Z,1014.38
2023-01-04T04:33:21.260Z,1014.40
2023-01-04T04:34:21.264Z,1014.37
2023-01-04T04:35:21.258Z,1014.42
2023-01-04T04:36:21.270Z,1014.32
2023-01-04T04:37:21.272Z,1014.29
2023-01-04T04:38:21.277Z,1014.27
2023-01-04T04:39:21.280Z,1014.28
2023-01-04T04:40:21.283Z,1014.23
2023-01-04T04:41:21.285Z,1014.28
2023-01-04T04:42:21.300Z,1014.16
2023-01-04T04:43:21.283Z,1014.21
2023-01-04T04:44:21.304Z,1014.16
2023-01-04T04:45:21.286Z,1014.06
2023-01-04T04:46:21.402Z,1014.06
2023-01-04T04:47:21.294Z,1014.03
2023-01-04T04:48:21.287Z,1014.01
2023-01-04T04:49:21.292Z,1013.97
2023-01-04T04:50:21.289Z,1013.99
2023-01-04T04:51:21.299Z,1013.94
2023-01-04T04:52:21.295Z,1013.88
2023-01-04T04:53:21.304Z,1013.87
2023-01-04T04:54:21.305Z,1013.81
2023-01-04T04:55:21.316Z,1013.80
2023-01-04T04:56:21.322Z,1013.78
2023-01-04T04:57:21.310Z,1013.77
2023-01-04T04:58:21.335Z,1013.79
2023-01-04T04:59:21.316Z,1013.83
2023-01-04T05:00:21.312Z,1013.74
2023-01-04T05:01:21.548Z,1013.64
2023-01-04T05:02:21.444Z,1013.65
2023-01-04T05:03:21.417Z,1013.60
2023-01-04T05:04:21.325Z,1013.66
2023-01-04T05:05:21.326Z,1013.56
2023-01-04T05:06:21.325Z,1013.59
2023-01-04T05:07:21.333Z,1013.56
2023-01-04T05:08:21.330Z,1013.49
2023-01-04T05:09:21.341Z,1013.49
2023-01-04T05:10:21.336Z,1013.44
2023-01-04T05:11:21.343Z,1013.45
2023-01-04T05:12:21.343Z,1013.45
2023-01-04T05:13:21.363Z,1013.31
2023-01-04T05:14:21.373Z,1013.28
2023-01-04T05:15:21.349Z,1013.39
2023-01-04T05:16:21.361Z,1013.27
2023-01-04T05:17:21.374Z,1013.25
2023-01-04T05:18:21.372Z,1013.29
2023-01-04T05:19:21.365Z,1013.31
2023-01-04T05:20:21.374Z,1013.23
2023-01-04T05:21:21.372Z,1013.26
2023-01-04T05:22:21.381Z,1013.22
2023-01-04T05:23:21.364Z,1013.18
2023-01-04T05:24:21.382Z,1013.14
2023-01-04T05:25:21.430Z,1013.21
2023-01-04T05:26:21.382Z,1013.28
2023-01-04T05:27:21.378Z,1013.13
2023-01-04T05:28:21.386Z,1013.16
2023-01-04T05:29:21.390Z,1013.13
2023-01-04T05:30:21.550Z,1013.17
2023-01-04T05:31:21.491Z,1013.16
2023-01-04T05:32:21.396Z,1013.09
2023-01-04T05:33:21.399Z,1013.05
2023-01-04T05:34:22.449Z,1013.09
2023-01-04T05:35:21.394Z,1013.12
2023-01-04T05:36:21.405Z,1013.01
2023-01-04T05:37:21.412Z,1012.94
2023-01-04T05:38:21.409Z,1012.90
2023-01-04T05:39:21.413Z,1012.89
2023-01-04T05:40:21.406Z,1012.88
2023-01-04T05:41:21.418Z,1012.98
2023-01-04T05:42:21.419Z,1012.95
2023-01-04T05:43:21.427Z,1012.86
2023-01-04T05:44:21.423Z,1012.95
2023-01-04T05:45:21.426Z,1012.89
2023-01-04T05:46:21.566Z,1012.83
2023-01-04T05:47:21.443Z,1012.80
2023-01-04T05:48:21.435Z,1012.77
2023-01-04T05:49:21.426Z,1012.86
2023-01-04T05:50:21.452Z,1012.74
2023-01-04T05:51:21.444Z,1012.73
2023-01-04T05:52:21.435Z,1012.75
2023-01-04T05:53:21.443Z,1012.71
2023-01-04T05:54:21.840Z,1012.74
2023-01-04T05:55:21.447Z,1012.84
2023-01-04T05:56:21.450Z,1012.73
2023-01-04T05:57:21.456Z,1012.79
2023-01-04T05:58:21.458Z,1012.68
2023-01-04T05:59:21.461Z,1012.59
2023-01-04T06:00:21.460Z,1012.63
2023-01-04T06:01:21.518Z,1012.60
2023-01-04T06:02:21.532Z,1012.69
2023-01-04T06:03:21.590Z,1012.62
2023-01-04T06:04:21.474Z,1012.60
2023-01-04T06:05:21.476Z,1012.61
2023-01-04T06:06:21.464Z,1012.57
2023-01-04T06:07:21.466Z,1012.52
2023-01-04T06:08:21.467Z,1012.50
2023-01-04T06:09:21.477Z,1012.48
2023-01-04T06:10:21.493Z,1012.45
2023-01-04T06:11:27.363Z,1012.44
2023-01-04T06:12:21.481Z,1012.41
2023-01-04T06:13:21.480Z,1012.41
2023-01-04T06:14:21.482Z,1012.40
2023-01-04T06:15:21.479Z,1012.40
2023-01-04T06:16:21.572Z,1012.29
2023-01-04T06:17:21.485Z,1012.39
2023-01-04T06:18:21.517Z,1012.38
2023-01-04T06:19:21.495Z,1012.34
2023-01-04T06:20:21.498Z,1012.28
2023-01-04T06:21:21.499Z,1012.33
2023-01-04T06:22:24.120Z,1012.17
2023-01-04T06:23:21.503Z,1012.15
2023-01-04T06:24:21.498Z,1012.05
2023-01-04T06:25:21.498Z,1012.05
2023-01-04T06:26:21.505Z,1012.03
2023-01-04T06:27:21.528Z,1012.02
2023-01-04T06:28:21.511Z,1012.05
2023-01-04T06:29:21.508Z,1012.04
2023-01-04T06:30:21.509Z,1012.00
2023-01-04T06:31:21.590Z,1012.02
2023-01-04T06:32:21.528Z,1012.07
2023-01-04T06:33:21.525Z,1011.89
2023-01-04T06:34:26.860Z,1011.87
2023-01-04T06:35:21.527Z,1011.81
2023-01-04T06:36:21.534Z,1011.90
2023-01-04T06:37:21.529Z,1011.81
2023-01-04T06:38:21.533Z,1011.75
2023-01-04T06:39:21.532Z,1011.79
2023-01-04T06:40:21.532Z,1011.71
2023-01-04T06:41:21.538Z,1011.67
2023-01-04T06:42:21.535Z,1011.66
2023-01-04T06:43:21.575Z,1011.63
2023-01-04T06:44:21.542Z,1011.63
2023-01-04T06:45:21.535Z,1011.49
2023-01-04T06:46:21.649Z,1011.46
2023-01-04T06:47:21.545Z,1011.46
2023-01-04T06:48:21.542Z,1011.51
2023-01-04T06:49:21.551Z,1011.39
2023-01-04T06:50:21.571Z,1011.43
2023-01-04T06:51:21.555Z,1011.43
2023-01-04T06:52:21.551Z,1011.37
2023-01-04T06:53:21.558Z,1011.32
2023-01-04T06:54:21.582Z,1011.26
2023-01-04T06:55:21.565Z,1011.18
2023-01-04T06:56:21.556Z,1011.32
2023-01-04T06:57:21.569Z,1011.12
2023-01-04T06:58:21.567Z,1011.16
2023-01-04T06:59:21.562Z,1011.10
2023-01-04T07:00:21.563Z,1011.05
2023-01-04T07:01:21.704Z,1011.05
2023-01-04T07:02:21.728Z,1011.11
2023-01-04T07:03:21.692Z,1011.04
2023-01-04T07:04:21.625Z,1011.06
2023-01-04T07:05:21.575Z,1010.98
2023-01-04T07:06:21.708Z,1011.01
2023-01-04T07:07:21.575Z,1010.96
2023-01-04T07:08:21.592Z,1010.91
2023-01-04T07:09:21.588Z,1010.95
2023-01-04T07:10:21.586Z,1010.84
2023-01-04T07:11:21.587Z,1010.89
2023-01-04T07:12:21.587Z,1010.89
2023-01-04T07:13:21.597Z,1010.80
2023-01-04T07:14:21.610Z,1010.93
2023-01-04T07:15:37.124Z,1010.84
2023-01-04T07:16:21.703Z,1010.78
2023-01-04T07:17:28.017Z,1010.83
2023-01-04T07:18:21.608Z,1010.63
2023-01-04T07:19:21.605Z,1010.69
2023-01-04T07:20:21.677Z,1010.70
2023-01-04T07:21:21.611Z,1010.78
2023-01-04T07:22:21.629Z,1010.71
2023-01-04T07:23:21.618Z,1010.63
2023-01-04T07:24:26.350Z,1010.57
2023-01-04T07:25:21.618Z,1010.58
2023-01-04T07:26:21.613Z,1010.52
2023-01-04T07:27:21.615Z,1010.52
2023-01-04T07:28:21.631Z,1010.43
2023-01-04T07:29:21.638Z,1010.56
2023-01-04T07:30:21.626Z,1010.42
2023-01-04T07:31:21.836Z,1010.57
2023-01-04T07:32:21.625Z,1010.37
2023-01-04T07:33:21.636Z,1010.39
2023-01-04T07:34:21.630Z,1010.41
2023-01-04T07:35:21.641Z,1010.44
2023-01-04T07:36:21.640Z,1010.42
2023-01-04T07:37:21.644Z,1010.32
2023-01-04T07:38:21.665Z,1010.35
2023-01-04T07:39:21.652Z,1010.46
2023-01-04T07:40:21.651Z,1010.38
2023-01-04T07:41:21.644Z,1010.28
2023-01-04T07:42:21.660Z,1010.40
2023-01-04T07:43:27.703Z,1010.36
2023-01-04T07:44:21.657Z,1010.28
2023-01-04T07:45:21.656Z,1010.29
2023-01-04T07:46:21.783Z,1010.34
2023-01-04T07:47:21.663Z,1010.36
2023-01-04T07:48:21.693Z,1010.34
2023-01-04T07:49:21.660Z,1010.37
2023-01-04T07:50:21.681Z,1010.28
2023-01-04T07:51:21.673Z,1010.30
2023-01-04T07:52:21.709Z,1010.22
2023-01-04T07:53:21.679Z,1010.24
2023-01-04T07:54:21.695Z,1010.23
2023-01-04T07:55:21.670Z,1010.48
2023-01-04T07:56:21.684Z,1010.35
2023-01-04T07:57:21.677Z,1010.28
2023-01-04T07:58:21.681Z,1010.23
2023-01-04T07:59:21.696Z,1010.26
2023-01-04T08:00:21.688Z,1010.23
2023-01-04T08:01:21.804Z,1010.16
2023-01-04T08:02:21.838Z,1010.14
2023-01-04T08:03:21.689Z,1010.19
2023-01-04T08:04:21.771Z,1010.00
2023-01-04T08:05:21.776Z,1009.93
2023-01-04T08:06:21.689Z,1010.13
2023-01-04T08:07:21.705Z,1010.11
2023-01-04T08:08:21.703Z,1010.09
2023-01-04T08:09:21.705Z,1010.07
2023-01-04T08:10:21.783Z,1010.17
2023-01-04T08:11:21.707Z,1010.14
2023-01-04T08:12:21.718Z,1010.12
2023-01-04T08:13:21.712Z,1010.09
2023-01-04T08:14:21.713Z,1010.15
2023-01-04T08:15:21.722Z,1010.14
2023-01-04T08:16:21.800Z,1010.14
2023-01-04T08:17:21.719Z,1010.25
2023-01-04T08:18:21.804Z,1010.16
2023-01-04T08:19:21.742Z,1010.13
2023-01-04T08:20:21.737Z,1010.20
2023-01-04T08:21:21.725Z,1010.09
2023-01-04T08:22:21.731Z,1010.09
2023-01-04T08:23:21.739Z,1010.12
2023-01-04T08:24:21.740Z,1010.02
2023-01-04T08:25:21.786Z,1010.07
2023-01-04T08:26:21.757Z,1010.07
2023-01-04T08:27:21.749Z,1010.06
2023-01-04T08:28:21.754Z,1009.94
2023-01-04T08:29:21.755Z,1010.05
2023-01-04T08:30:21.756Z,1009.95
2023-01-04T08:31:21.816Z,1009.90
2023-01-04T08:32:21.756Z,1010.08
2023-01-04T08:33:21.764Z,1009.95
2023-01-04T08:34:21.764Z,1009.95
2023-01-04T08:35:21.762Z,1009.92
2023-01-04T08:36:26.663Z,1010.01
2023-01-04T08:37:21.768Z,1010.05
2023-01-04T08:38:58.074Z,1010.01
2023-01-04T08:39:21.907Z,1009.94
2023-01-04T08:40:21.781Z,1009.93
2023-01-04T08:41:56.067Z,1009.95
2023-01-04T08:42:28.480Z,1009.91
2023-01-04T08:43:21.784Z,1009.92
2023-01-04T08:44:21.779Z,1009.92
2023-01-04T08:45:21.782Z,1009.98
2023-01-04T08:46:21.807Z,1009.91
2023-01-04T08:47:21.804Z,1009.93
2023-01-04T08:48:24.688Z,1009.92
2023-01-04T08:49:21.798Z,1009.93
2023-01-04T08:50:21.803Z,1009.91
2023-01-04T08:51:21.806Z,1009.88
2023-01-04T08:52:21.806Z,1009.88
2023-01-04T08:53:21.800Z,1009.70
2023-01-04T08:54:21.801Z,1009.79
2023-01-04T08:55:23.673Z,1009.86
2023-01-04T08:56:21.813Z,1009.84
2023-01-04T08:57:21.823Z,1009.81
2023-01-04T08:58:21.833Z,1009.79
2023-01-04T08:59:21.821Z,1009.76
2023-01-04T09:00:21.819Z,1009.68
2023-01-04T09:01:22.045Z,1009.69
2023-01-04T09:02:22.012Z,1009.55
2023-01-04T09:03:21.913Z,1009.63
2023-01-04T09:04:21.865Z,1009.58
2023-01-04T09:05:22.261Z,1009.67
2023-01-04T09:06:21.844Z,1009.50
2023-01-04T09:07:21.833Z,1009.57
2023-01-04T09:08:21.838Z,1009.60
2023-01-04T09:09:21.841Z,1009.63
2023-01-04T09:10:21.842Z,1009.47
2023-01-04T09:11:21.855Z,1009.52
2023-01-04T09:12:21.857Z,1009.52
2023-01-04T09:13:21.858Z,1009.47
2023-01-04T09:14:21.941Z,1009.56
2023-01-04T09:15:21.854Z,1009.57
2023-01-04T09:16:21.940Z,1009.57
2023-01-04T09:17:21.861Z,1009.53
2023-01-04T09:18:32.021Z,1009.59
2023-01-04T09:19:22.706Z,1009.54
2023-01-04T09:20:21.920Z,1009.52
2023-01-04T09:21:21.880Z,1009.59
2023-01-04T09:22:21.986Z,1009.50
2023-01-04T09:23:21.875Z,1009.55
2023-01-04T09:24:21.886Z,1009.42
2023-01-04T09:25:21.893Z,1009.55
2023-01-04T09:26:21.885Z,1009.48
2023-01-04T09:27:21.901Z,1009.56
2023-01-04T09:28:21.900Z,1009.51
2023-01-04T09:29:21.934Z,1009.57
2023-01-04T09:30:21.970Z,1009.56
2023-01-04T09:31:21.998Z,1009.50
2023-01-04T09:32:21.911Z,1009.54
2023-01-04T09:33:31.959Z,1009.50
2023-01-04T09:34:21.919Z,1009.53
2023-01-04T09:35:21.951Z,1009.50
2023-01-04T09:36:21.923Z,1009.56
2023-01-04T09:37:21.919Z,1009.47
2023-01-04T09:38:21.943Z,1009.45
2023-01-04T09:39:23.764Z,1009.40
2023-01-04T09:40:21.968Z,1009.44
2023-01-04T09:41:21.927Z,1009.31
2023-01-04T09:42:21.935Z,1009.35
2023-01-04T09:43:22.437Z,1009.38
2023-01-04T09:44:21.942Z,1009.31
2023-01-04T09:45:24.257Z,1009.18
2023-01-04T09:46:22.134Z,1009.28
2023-01-04T09:47:21.962Z,1009.25
2023-01-04T09:48:25.553Z,1009.18
2023-01-04T09:49:21.971Z,1009.26
2023-01-04T09:50:21.977Z,1009.18
2023-01-04T09:51:21.959Z,1009.16
2023-01-04T09:52:21.964Z,1009.07
2023-01-04T09:53:21.968Z,1009.09
2023-01-04T09:54:21.977Z,1009.09
2023-01-04T09:55:39.066Z,1009.07
2023-01-04T09:56:21.976Z,1009.09
2023-01-04T09:57:21.989Z,1009.07
2023-01-04T09:58:21.978Z,1009.14
2023-01-04T09:59:21.983Z,1009.04
2023-01-04T10:00:21.991Z,1008.99
2023-01-04T10:01:22.150Z,1009.00
2023-01-04T10:02:22.371Z,1008.94
2023-01-04T10:03:22.116Z,1008.92
2023-01-04T10:04:22.004Z,1008.73
2023-01-04T10:05:22.006Z,1008.77
2023-01-04T10:06:22.009Z,1008.72
2023-01-04T10:07:22.036Z,1008.71
2023-01-04T10:08:22.010Z,1008.77
2023-01-04T10:09:22.015Z,1008.70
2023-01-04T10:10:22.022Z,1008.72
2023-01-04T10:11:22.023Z,1008.73
2023-01-04T10:12:22.064Z,1008.72
2023-01-04T10:13:22.034Z,1008.76
2023-01-04T10:14:22.042Z,1008.75
2023-01-04T10:15:22.035Z,1008.74
2023-01-04T10:21:33.568Z,1008.60
2023-01-04T10:22:27.967Z,1008.55
2023-01-04T10:23:27.976Z,1008.44
2023-01-04T10:24:27.969Z,1008.48
2023-01-04T10:25:27.974Z,1008.45
2023-01-04T10:26:27.976Z,1008.51
2023-01-04T10:27:27.986Z,1008.45
2023-01-04T10:28:27.991Z,1008.44
2023-01-04T10:29:27.985Z,1008.37
2023-01-04T10:30:28.006Z,1008.48
2023-01-04T10:31:40.024Z,1008.37
2023-01-04T10:32:28.073Z,1008.54
2023-01-04T10:33:28.002Z,1008.53
2023-01-04T10:34:28.032Z,1008.40
2023-01-04T10:35:28.034Z,1008.45
2023-01-04T10:36:28.024Z,1008.41
2023-01-04T10:37:28.012Z,1008.40
2023-01-04T10:38:28.030Z,1008.30
2023-01-04T10:39:32.350Z,1008.41
2023-01-04T10:40:28.040Z,1008.26
2023-01-04T10:41:28.032Z,1008.27
2023-01-04T10:42:28.037Z,1008.18
2023-01-04T10:43:28.039Z,1008.18
2023-01-04T10:44:28.049Z,1008.13
2023-01-04T10:45:28.053Z,1008.11
2023-01-04T10:46:28.124Z,1008.16
2023-01-04T10:47:28.043Z,1008.13
2023-01-04T10:48:28.053Z,1008.18
2023-01-04T10:49:28.065Z,1008.13
2023-01-04T10:50:28.059Z,1008.08
2023-01-04T10:51:28.082Z,1008.11
2023-01-04T10:52:28.059Z,1008.11
2023-01-04T10:53:28.068Z,1008.03
2023-01-04T10:54:28.069Z,1007.99
2023-01-04T10:55:28.067Z,1007.97
2023-01-04T10:56:28.077Z,1008.05
2023-01-04T10:57:28.079Z,1008.03
2023-01-04T10:58:28.076Z,1008.12
2023-01-04T10:59:28.089Z,1008.08
2023-01-04T11:00:28.092Z,1008.09
2023-01-04T11:01:28.243Z,1008.12
2023-01-04T11:02:28.208Z,1008.09
2023-01-04T11:03:28.211Z,1008.05
2023-01-04T11:04:28.094Z,1008.08
2023-01-04T11:05:28.098Z,1008.10
2023-01-04T11:06:28.107Z,1008.09
2023-01-04T11:07:28.154Z,1008.07
2023-01-04T11:08:28.114Z,1008.07
2023-01-04T11:09:28.113Z,1008.09
2023-01-04T11:10:28.117Z,1008.13
2023-01-04T11:11:28.122Z,1008.12
2023-01-04T11:12:28.119Z,1008.04
2023-01-04T11:13:28.129Z,1008.03
2023-01-04T11:14:33.324Z,1008.03
2023-01-04T11:15:28.128Z,1008.01
2023-01-04T11:16:28.207Z,1008.05
2023-01-04T11:17:28.142Z,1008.02
2023-01-04T11:18:28.139Z,1008.02
2023-01-04T11:19:28.178Z,1008.07
2023-01-04T11:20:29.699Z,1007.99
2023-01-04T11:21:28.156Z,1007.96
2023-01-04T11:22:28.260Z,1007.90
2023-01-04T11:23:28.281Z,1007.89
2023-01-04T11:24:33.015Z,1007.89
2023-01-04T11:25:36.465Z,1007.87
2023-01-04T11:26:28.173Z,1007.72
2023-01-04T11:27:28.179Z,1007.68
2023-01-04T11:28:28.181Z,1007.67
2023-01-04T11:29:28.190Z,1007.65
2023-01-04T11:30:28.188Z,1007.57
2023-01-04T11:31:28.289Z,1007.55
2023-01-04T11:32:28.194Z,1007.55
2023-01-04T11:33:28.191Z,1007.59
2023-01-04T11:34:28.221Z,1007.46
2023-01-04T11:35:28.205Z,1007.57
2023-01-04T11:36:28.208Z,1007.53
2023-01-04T11:37:28.241Z,1007.57
2023-01-04T11:38:28.215Z,1007.46
2023-01-04T11:39:28.239Z,1007.42
2023-01-04T11:40:28.249Z,1007.38
2023-01-04T11:41:28.226Z,1007.45
2023-01-04T11:42:28.223Z,1007.36
2023-01-04T11:43:28.230Z,1007.37
2023-01-04T11:44:28.239Z,1007.31
2023-01-04T11:45:28.287Z,1007.36
2023-01-04T11:46:28.308Z,1007.31
2023-01-04T11:47:31.421Z,1007.30
2023-01-04T11:48:28.247Z,1007.35
2023-01-04T11:49:28.260Z,1007.41
2023-01-04T11:50:28.263Z,1007.30
2023-01-04T11:51:28.264Z,1007.33
2023-01-04T11:52:28.267Z,1007.24
2023-01-04T11:53:28.340Z,1007.28
2023-01-04T11:54:28.290Z,1007.22
2023-01-04T11:55:28.292Z,1007.26
2023-01-04T11:56:28.279Z,1007.25
2023-01-04T11:57:28.290Z,1007.19
2023-01-04T11:58:28.284Z,1007.21
2023-01-04T11:59:28.286Z,1007.27
2023-01-04T12:00:28.296Z,1007.32
2023-01-04T12:01:28.443Z,1007.21
2023-01-04T12:03:00.237Z,1007.29
2023-01-04T12:03:28.315Z,1007.28
2023-01-04T12:04:29.016Z,1007.26
2023-01-04T12:05:30.346Z,1007.35
2023-01-04T12:06:28.328Z,1007.31
2023-01-04T12:07:28.330Z,1007.28
2023-01-04T12:08:28.320Z,1007.27
2023-01-04T12:09:28.336Z,1007.26
2023-01-04T12:10:28.534Z,1007.27
2023-01-04T12:11:28.359Z,1007.27
2023-01-04T12:12:28.352Z,1007.24
2023-01-04T12:13:28.338Z,1007.23
2023-01-04T12:14:28.348Z,1007.16
2023-01-04T12:15:28.347Z,1007.11
2023-01-04T12:16:28.366Z,1007.10
2023-01-04T12:17:28.355Z,1007.11
2023-01-04T12:18:28.363Z,1007.08
2023-01-04T12:19:28.371Z,1006.97
2023-01-04T12:20:28.379Z,1006.96
2023-01-04T12:21:28.372Z,1007.00
2023-01-04T12:22:28.368Z,1007.02